Terminal Aerodrome Forecast
Issued by NWS

Current Version | Previous Version | Graphics & Text | Print | Product List | Glossary On
Versions: 1 2 3 4 5 6 7 8 9 10 11 12 13 14 15 16
000
FTUS41 KPBZ 260521
TAFMGW
TAF
KMGW 260521Z 2606/2706 12005KT P6SM SCT250
     FM261700 20008KT P6SM VCTS BKN250CB
     FM262000 21010KT 6SM -SHRA VCTS BKN050CB
     FM270100 28007KT P6SM VCSH OVC020
     FM270400 26005KT P6SM BKN020=

USA.gov is the U.S. government's official web portal to all federal, state and local government web resources and services.